createdAt,value
2023-11-09T00:01:53.605Z,18.52
2023-11-09T00:04:27.212Z,18.48
2023-11-09T00:07:01.171Z,18.44
2023-11-09T00:09:34.843Z,18.49
2023-11-09T00:12:12.018Z,18.50
2023-11-09T00:14:45.466Z,18.51
2023-11-09T00:17:20.840Z,18.51
2023-11-09T00:19:54.482Z,18.48
2023-11-09T00:22:28.075Z,18.44
2023-11-09T00:25:01.667Z,18.44
2023-11-09T00:27:35.130Z,18.47
2023-11-09T00:30:10.495Z,18.44
2023-11-09T00:32:44.217Z,18.41
2023-11-09T00:35:20.769Z,18.46
2023-11-09T00:37:54.499Z,18.41
2023-11-09T00:40:28.014Z,18.40
2023-11-09T00:43:01.681Z,18.39
2023-11-09T00:45:35.954Z,18.40
2023-11-09T00:48:10.331Z,18.41
2023-11-09T00:50:43.849Z,18.38
2023-11-09T00:53:17.584Z,18.37
2023-11-09T00:55:51.319Z,18.40
2023-11-09T00:58:25.217Z,18.36
2023-11-09T01:00:59.781Z,18.34
2023-11-09T01:03:33.272Z,18.34
2023-11-09T01:06:08.765Z,18.35
2023-11-09T01:08:43.065Z,18.29
2023-11-09T01:11:23.033Z,18.31
2023-11-09T01:13:58.677Z,18.29
2023-11-09T01:16:32.259Z,18.31
2023-11-09T01:19:06.267Z,18.31
2023-11-09T01:21:39.986Z,18.31
2023-11-09T01:24:14.214Z,18.33
2023-11-09T01:26:48.131Z,18.32
2023-11-09T01:29:23.178Z,18.27
2023-11-09T01:31:58.987Z,18.25
2023-11-09T01:34:33.075Z,18.24
2023-11-09T01:37:12.067Z,18.22
2023-11-09T01:39:46.628Z,18.23
2023-11-09T01:42:20.198Z,18.24
2023-11-09T01:44:53.785Z,18.22
2023-11-09T01:47:28.952Z,18.21
2023-11-09T01:50:03.470Z,18.19
2023-11-09T01:52:38.132Z,18.21
2023-11-09T01:55:13.592Z,18.17
2023-11-09T01:57:47.536Z,18.15
2023-11-09T02:00:21.799Z,18.17
2023-11-09T02:02:56.237Z,18.19
2023-11-09T02:05:30.063Z,18.19
2023-11-09T02:08:04.664Z,18.13
2023-11-09T02:10:38.540Z,18.15
2023-11-09T02:13:15.374Z,18.16
2023-11-09T02:15:49.236Z,18.16
2023-11-09T02:18:23.230Z,18.14
2023-11-09T02:20:57.222Z,18.14
2023-11-09T02:23:38.862Z,18.15
2023-11-09T02:26:13.325Z,18.15
2023-11-09T02:28:51.206Z,18.15
2023-11-09T02:31:25.760Z,18.12
2023-11-09T02:33:59.483Z,18.12
2023-11-09T02:36:33.108Z,18.10
2023-11-09T02:39:07.287Z,18.09
2023-11-09T02:41:40.876Z,18.08
2023-11-09T02:44:14.399Z,18.10
2023-11-09T02:46:47.817Z,18.05
2023-11-09T02:49:21.396Z,18.07
2023-11-09T02:51:55.417Z,18.07
2023-11-09T02:54:29.145Z,18.01
2023-11-09T02:57:02.868Z,18.03
2023-11-09T02:59:36.323Z,18.04
2023-11-09T03:02:10.042Z,18.01
2023-11-09T03:04:43.550Z,17.98
2023-11-09T03:07:17.290Z,17.99
2023-11-09T03:09:50.928Z,18.00
2023-11-09T03:12:24.400Z,17.97
2023-11-09T03:14:57.835Z,17.94
2023-11-09T03:17:31.337Z,17.96
2023-11-09T03:20:05.570Z,17.99
2023-11-09T03:22:39.058Z,17.99
2023-11-09T03:25:13.465Z,17.96
2023-11-09T03:27:48.223Z,17.95
2023-11-09T03:30:22.529Z,17.95
2023-11-09T03:32:56.078Z,17.96
2023-11-09T03:35:29.497Z,17.94
2023-11-09T03:38:02.917Z,17.92
2023-11-09T03:40:36.444Z,17.94
2023-11-09T03:43:10.021Z,17.93
2023-11-09T03:45:43.489Z,17.88
2023-11-09T03:48:17.111Z,17.88
2023-11-09T03:50:50.919Z,17.90
2023-11-09T03:53:24.470Z,17.86
2023-11-09T03:55:57.998Z,17.93
2023-11-09T03:58:32.139Z,17.92
2023-11-09T04:01:05.820Z,17.90
2023-11-09T04:03:39.452Z,17.89
2023-11-09T04:06:19.100Z,17.88
2023-11-09T04:08:52.693Z,17.85
2023-11-09T04:11:27.580Z,17.84
2023-11-09T04:14:00.996Z,17.85
2023-11-09T04:16:35.584Z,17.84
2023-11-09T04:19:09.736Z,17.84
2023-11-09T04:21:43.241Z,17.84
2023-11-09T04:24:17.036Z,17.85
2023-11-09T04:26:50.583Z,17.79
2023-11-09T04:29:25.216Z,17.84
2023-11-09T04:31:58.694Z,17.83
2023-11-09T04:34:36.108Z,17.83
2023-11-09T04:37:13.117Z,17.84
2023-11-09T04:39:48.066Z,17.82
2023-11-09T04:42:25.293Z,17.80
2023-11-09T04:45:00.332Z,17.80
2023-11-09T04:47:34.773Z,17.83
2023-11-09T04:50:15.258Z,17.84
2023-11-09T04:52:58.453Z,17.78
2023-11-09T04:55:44.093Z,17.79
2023-11-09T04:58:35.624Z,17.77
2023-11-09T05:01:26.891Z,17.81
2023-11-09T05:04:17.932Z,17.77
2023-11-09T05:06:53.137Z,17.78
2023-11-09T05:09:28.948Z,17.77
2023-11-09T05:12:02.903Z,17.85
2023-11-09T05:14:36.890Z,17.86
2023-11-09T05:17:10.795Z,17.88
2023-11-09T05:19:45.624Z,17.84
2023-11-09T05:22:19.261Z,17.06
2023-11-09T05:24:54.086Z,17.62
2023-11-09T05:27:28.577Z,17.76
2023-11-09T05:30:02.020Z,17.76
2023-11-09T05:32:36.528Z,17.74
2023-11-09T05:35:18.331Z,17.71
2023-11-09T05:37:52.690Z,17.69
2023-11-09T05:40:27.925Z,17.67
2023-11-09T05:43:01.434Z,17.70
2023-11-09T05:45:34.997Z,17.69
2023-11-09T05:48:09.317Z,17.66
2023-11-09T05:50:42.861Z,17.72
2023-11-09T05:53:17.048Z,17.71
2023-11-09T05:55:51.089Z,17.71
2023-11-09T05:58:24.780Z,17.71
2023-11-09T06:00:58.314Z,17.72
2023-11-09T06:03:31.908Z,17.76
2023-11-09T06:06:05.880Z,17.73
2023-11-09T06:08:39.322Z,17.71
2023-11-09T06:11:14.872Z,17.71
2023-11-09T06:13:49.124Z,17.70
2023-11-09T06:16:23.190Z,17.71
2023-11-09T06:18:57.462Z,17.72
2023-11-09T06:21:31.055Z,17.78
2023-11-09T06:24:04.727Z,18.15
2023-11-09T06:26:38.313Z,18.15
2023-11-09T06:29:12.180Z,18.15
2023-11-09T06:31:45.885Z,18.12
2023-11-09T06:34:19.503Z,18.11
2023-11-09T06:36:53.026Z,18.13
2023-11-09T06:39:26.747Z,18.08
2023-11-09T06:42:00.404Z,18.10
2023-11-09T06:44:34.291Z,18.09
2023-11-09T06:47:08.243Z,18.06
2023-11-09T06:49:41.914Z,18.06
2023-11-09T06:52:15.872Z,18.05
2023-11-09T06:54:49.875Z,18.05
2023-11-09T06:57:23.500Z,18.05
2023-11-09T06:59:57.112Z,18.08
2023-11-09T07:02:30.725Z,18.10
2023-11-09T07:05:07.964Z,18.09
2023-11-09T07:07:41.976Z,18.13
2023-11-09T07:10:17.052Z,18.14
2023-11-09T07:12:50.751Z,18.18
2023-11-09T07:15:25.928Z,18.19
2023-11-09T07:18:00.241Z,18.19
2023-11-09T07:20:34.625Z,18.23
2023-11-09T07:23:08.962Z,18.24
2023-11-09T07:25:43.502Z,18.26
2023-11-09T07:28:16.880Z,18.23
2023-11-09T07:30:52.895Z,18.26
2023-11-09T07:33:26.385Z,18.30
2023-11-09T07:36:00.580Z,18.38
2023-11-09T07:38:34.166Z,18.41
2023-11-09T07:41:07.738Z,18.42
2023-11-09T07:43:41.133Z,18.47
2023-11-09T07:46:14.670Z,18.51
2023-11-09T07:48:48.181Z,18.46
2023-11-09T07:51:24.868Z,18.46
2023-11-09T07:53:58.490Z,18.42
2023-11-09T07:56:31.817Z,18.38
2023-11-09T07:59:05.549Z,18.39
2023-11-09T08:01:39.307Z,18.39
2023-11-09T08:04:13.548Z,18.42
2023-11-09T08:06:48.046Z,18.45
2023-11-09T08:09:22.871Z,18.45
2023-11-09T08:11:56.675Z,18.43
2023-11-09T08:14:30.204Z,18.43
2023-11-09T08:17:03.892Z,18.42
2023-11-09T08:19:38.063Z,18.42
2023-11-09T08:22:11.622Z,18.41
2023-11-09T08:24:45.464Z,18.36
2023-11-09T08:27:22.539Z,17.72
2023-11-09T08:29:57.811Z,18.40
2023-11-09T08:32:31.522Z,18.68
2023-11-09T08:35:10.635Z,18.74
2023-11-09T08:37:45.095Z,18.75
2023-11-09T08:40:19.522Z,18.75
2023-11-09T08:42:55.077Z,18.75
2023-11-09T08:45:30.700Z,18.57
2023-11-09T08:48:06.249Z,18.47
2023-11-09T08:50:41.355Z,18.43
2023-11-09T08:53:15.051Z,18.60
2023-11-09T08:55:48.880Z,18.54
2023-11-09T08:58:22.275Z,18.36
2023-11-09T09:00:55.908Z,18.41
2023-11-09T09:03:29.425Z,18.64
2023-11-09T09:06:05.440Z,18.56
2023-11-09T09:08:39.057Z,18.57
2023-11-09T09:11:12.884Z,18.57
2023-11-09T09:13:46.341Z,18.50
2023-11-09T09:16:20.257Z,18.48
2023-11-09T09:18:53.876Z,18.49
2023-11-09T09:21:28.435Z,18.57
2023-11-09T09:24:04.195Z,18.56
2023-11-09T09:26:38.444Z,18.57
2023-11-09T09:29:11.938Z,18.54
2023-11-09T09:31:45.334Z,18.60
2023-11-09T09:34:26.682Z,18.55
2023-11-09T09:37:00.659Z,18.51
2023-11-09T09:39:34.054Z,18.51
2023-11-09T09:42:09.573Z,18.46
2023-11-09T09:44:44.503Z,18.51
2023-11-09T09:47:18.053Z,18.53
2023-11-09T09:49:54.763Z,18.49
2023-11-09T09:52:28.664Z,18.55
2023-11-09T09:55:02.316Z,18.55
2023-11-09T09:57:36.321Z,18.48
2023-11-09T10:00:14.994Z,18.53
2023-11-09T10:02:47.082Z,18.56
2023-11-09T10:05:21.076Z,18.56
2023-11-09T10:08:05.944Z,18.57
2023-11-09T10:10:42.710Z,18.39
2023-11-09T10:13:16.668Z,18.46
2023-11-09T10:15:59.032Z,18.73
2023-11-09T10:18:35.209Z,18.55
2023-11-09T10:21:13.984Z,18.77
2023-11-09T10:23:55.358Z,18.88
2023-11-09T10:26:41.529Z,18.39
2023-11-09T10:29:18.816Z,18.63
2023-11-09T10:31:53.205Z,18.64
2023-11-09T10:34:30.983Z,18.51
2023-11-09T10:37:04.682Z,18.54
2023-11-09T10:39:43.909Z,18.48
2023-11-09T10:42:18.504Z,18.50
2023-11-09T10:44:53.498Z,18.60
2023-11-09T10:47:28.503Z,18.60
2023-11-09T10:50:14.669Z,18.67
2023-11-09T10:52:51.045Z,18.64
2023-11-09T10:55:25.682Z,18.64
2023-11-09T10:58:06.586Z,18.62
2023-11-09T11:00:43.830Z,18.63
2023-11-09T11:03:29.111Z,18.60
2023-11-09T11:06:06.578Z,18.65
2023-11-09T11:08:44.555Z,18.63
2023-11-09T11:11:25.680Z,18.60
2023-11-09T11:14:03.971Z,18.63
2023-11-09T11:16:53.912Z,18.69
2023-11-09T11:20:18.817Z,18.67
2023-11-09T11:23:22.986Z,18.64
2023-11-09T11:26:07.223Z,18.67
2023-11-09T11:28:42.364Z,18.66
2023-11-09T11:31:17.011Z,18.58
2023-11-09T11:33:53.209Z,18.57
2023-11-09T11:36:34.793Z,18.53
2023-11-09T11:39:37.743Z,18.54
2023-11-09T11:42:26.733Z,18.59
2023-11-09T11:45:00.707Z,18.54
2023-11-09T11:47:36.766Z,18.54
2023-11-09T11:50:12.000Z,18.53
2023-11-09T11:52:51.245Z,18.66
2023-11-09T11:55:30.290Z,18.85
2023-11-09T11:58:08.703Z,18.69
2023-11-09T12:00:45.005Z,18.67
2023-11-09T12:03:19.764Z,18.59
2023-11-09T12:06:14.336Z,18.64
2023-11-09T12:08:56.857Z,18.75
2023-11-09T12:11:35.197Z,18.73
2023-11-09T12:14:09.928Z,18.72
2023-11-09T12:16:43.761Z,18.69
2023-11-09T12:19:18.289Z,18.70
2023-11-09T12:21:52.850Z,18.77
2023-11-09T12:24:27.560Z,18.80
2023-11-09T12:27:09.863Z,18.81
2023-11-09T12:29:44.328Z,18.84
2023-11-09T12:32:20.140Z,18.78
2023-11-09T12:34:55.244Z,18.68
2023-11-09T12:37:33.475Z,18.83
2023-11-09T12:40:09.019Z,18.77
2023-11-09T12:42:45.942Z,18.75
2023-11-09T12:45:19.581Z,18.79
2023-11-09T12:47:53.059Z,18.83
2023-11-09T12:50:31.418Z,18.79
2023-11-09T12:53:06.677Z,18.73
2023-11-09T12:55:40.609Z,18.67
2023-11-09T12:58:14.545Z,18.64
2023-11-09T13:00:48.435Z,18.63
2023-11-09T13:03:22.448Z,18.61
2023-11-09T13:05:56.144Z,18.55
2023-11-09T13:08:29.586Z,18.51
2023-11-09T13:11:03.805Z,18.53
2023-11-09T13:13:37.975Z,18.53
2023-11-09T13:16:15.866Z,18.48
2023-11-09T13:18:53.104Z,18.43
2023-11-09T13:21:29.352Z,18.52
2023-11-09T13:24:02.830Z,18.44
2023-11-09T13:26:36.545Z,18.38
2023-11-09T13:29:12.619Z,18.38
2023-11-09T13:31:46.302Z,18.42
2023-11-09T13:34:24.900Z,18.43
2023-11-09T13:36:59.454Z,18.42
2023-11-09T13:39:51.605Z,18.41
2023-11-09T13:42:38.216Z,18.51
2023-11-09T13:45:36.105Z,18.46
2023-11-09T13:48:11.103Z,18.46
2023-11-09T13:50:48.188Z,18.42
2023-11-09T13:53:39.740Z,18.38
2023-11-09T13:56:29.980Z,18.37
2023-11-09T13:59:13.689Z,18.38
2023-11-09T14:01:52.246Z,18.40
2023-11-09T14:04:26.212Z,18.42
2023-11-09T14:07:00.280Z,18.36
2023-11-09T14:09:35.518Z,18.36
2023-11-09T14:12:11.147Z,18.36
2023-11-09T14:14:49.484Z,18.38
2023-11-09T14:17:30.007Z,18.37
2023-11-09T14:20:13.905Z,18.33
2023-11-09T14:22:48.706Z,18.32
2023-11-09T14:25:23.582Z,18.32
2023-11-09T14:27:59.298Z,18.34
2023-11-09T14:30:33.751Z,18.27
2023-11-09T14:33:09.205Z,18.26
2023-11-09T14:35:44.153Z,18.50
2023-11-09T14:38:21.232Z,18.37
2023-11-09T14:40:57.904Z,18.25
2023-11-09T14:43:34.705Z,18.28
2023-11-09T14:46:15.039Z,18.17
2023-11-09T14:48:51.732Z,18.27
2023-11-09T14:51:25.907Z,18.19
2023-11-09T14:54:02.088Z,18.14
2023-11-09T14:56:35.705Z,18.16
2023-11-09T14:59:13.037Z,18.15
2023-11-09T15:01:46.803Z,18.13
2023-11-09T15:04:22.583Z,18.18
2023-11-09T15:07:01.304Z,18.20
2023-11-09T15:09:36.528Z,18.27
2023-11-09T15:12:10.604Z,18.24
2023-11-09T15:14:44.718Z,18.25
2023-11-09T15:17:18.500Z,18.33
2023-11-09T15:19:51.992Z,18.38
2023-11-09T15:22:26.189Z,18.31
2023-11-09T15:24:59.849Z,18.24
2023-11-09T15:27:33.291Z,18.28
2023-11-09T15:30:09.580Z,18.33
2023-11-09T15:32:43.759Z,18.29
2023-11-09T15:35:18.506Z,18.26
2023-11-09T15:37:52.281Z,18.30
2023-11-09T15:41:09.745Z,18.29
2023-11-09T15:43:20.467Z,18.26
2023-11-09T15:45:56.535Z,18.31
2023-11-09T15:48:32.204Z,18.30
2023-11-09T15:51:05.867Z,18.32
2023-11-09T15:53:43.486Z,18.31
2023-11-09T15:56:17.344Z,18.30
2023-11-09T15:58:50.983Z,18.24
2023-11-09T16:01:24.932Z,18.22
2023-11-09T16:03:58.768Z,18.27
2023-11-09T16:06:33.986Z,18.20
2023-11-09T16:09:12.977Z,18.22
2023-11-09T16:11:48.014Z,18.21
2023-11-09T16:14:21.570Z,18.17
2023-11-09T16:16:55.139Z,18.21
2023-11-09T16:19:28.931Z,18.22
2023-11-09T16:22:04.542Z,18.13
2023-11-09T16:24:43.504Z,18.16
2023-11-09T16:27:18.310Z,18.17
2023-11-09T16:29:51.833Z,18.21
2023-11-09T16:32:25.631Z,18.18
2023-11-09T16:34:59.334Z,18.16
2023-11-09T16:37:32.900Z,18.20
2023-11-09T16:40:08.129Z,18.26
2023-11-09T16:42:42.224Z,18.11
2023-11-09T16:45:16.715Z,17.92
2023-11-09T16:47:53.604Z,18.06
2023-11-09T16:50:27.482Z,18.14
2023-11-09T16:53:01.305Z,18.03
2023-11-09T16:55:35.479Z,18.10
2023-11-09T16:58:09.253Z,17.83
2023-11-09T17:00:42.862Z,17.87
2023-11-09T17:03:16.929Z,18.07
2023-11-09T17:05:51.716Z,18.02
2023-11-09T17:08:25.995Z,17.97
2023-11-09T17:11:00.173Z,17.92
2023-11-09T17:13:34.834Z,17.92
2023-11-09T17:16:10.249Z,17.89
2023-11-09T17:18:44.472Z,17.91
2023-11-09T17:21:17.855Z,17.85
2023-11-09T17:23:51.328Z,17.83
2023-11-09T17:26:26.240Z,17.82
2023-11-09T17:29:00.356Z,17.73
2023-11-09T17:31:34.053Z,17.78
2023-11-09T17:34:07.649Z,17.76
2023-11-09T17:36:42.780Z,17.77
2023-11-09T17:39:17.006Z,17.76
2023-11-09T17:41:52.781Z,17.71
2023-11-09T17:44:26.496Z,17.74
2023-11-09T17:47:00.185Z,17.85
2023-11-09T17:49:33.959Z,17.82
2023-11-09T17:52:08.921Z,17.74
2023-11-09T17:54:42.566Z,17.78
2023-11-09T17:57:16.059Z,17.75
2023-11-09T17:59:49.548Z,17.73
2023-11-09T18:02:23.638Z,17.75
2023-11-09T18:04:57.181Z,17.79
2023-11-09T18:07:30.767Z,17.84
2023-11-09T18:10:04.249Z,17.97
2023-11-09T18:12:38.084Z,17.92
2023-11-09T18:15:15.868Z,17.82
2023-11-09T18:17:49.387Z,17.80
2023-11-09T18:20:22.809Z,17.77
2023-11-09T18:22:56.451Z,17.81
2023-11-09T18:25:31.677Z,17.79
2023-11-09T18:28:06.172Z,17.76
2023-11-09T18:30:40.368Z,17.72
2023-11-09T18:33:13.875Z,17.77
2023-11-09T18:35:48.676Z,17.75
2023-11-09T18:38:22.121Z,17.71
2023-11-09T18:40:55.596Z,17.73
2023-11-09T18:43:29.182Z,17.70
2023-11-09T18:46:02.782Z,17.71
2023-11-09T18:48:36.308Z,17.65
2023-11-09T18:51:10.100Z,17.66
2023-11-09T18:53:43.542Z,17.67
2023-11-09T18:56:18.766Z,17.66
2023-11-09T18:58:52.391Z,17.65
2023-11-09T19:01:26.231Z,17.68
2023-11-09T19:06:36.544Z,17.63
2023-11-09T19:09:10.676Z,17.61
2023-11-09T19:11:44.533Z,17.59
2023-11-09T19:14:18.256Z,17.57
2023-11-09T19:16:51.809Z,17.63
2023-11-09T19:19:25.475Z,17.58
2023-11-09T19:24:36.138Z,17.50
2023-11-09T19:27:09.734Z,17.61
2023-11-09T19:29:44.788Z,17.60
2023-11-09T19:32:18.369Z,17.59
2023-11-09T19:34:51.972Z,17.56
2023-11-09T19:37:25.362Z,17.61
2023-11-09T19:40:00.252Z,17.64
2023-11-09T19:42:34.205Z,17.51
2023-11-09T19:45:09.935Z,17.41
2023-11-09T19:47:44.965Z,17.45
2023-11-09T19:50:22.316Z,16.95
2023-11-09T19:52:55.813Z,17.15
2023-11-09T19:55:29.371Z,17.32
2023-11-09T19:58:05.598Z,17.53
2023-11-09T20:00:40.157Z,17.43
2023-11-09T20:03:13.913Z,17.30
2023-11-09T20:05:47.557Z,17.22
2023-11-09T20:08:21.927Z,17.23
2023-11-09T20:10:55.356Z,17.37
2023-11-09T20:13:29.444Z,17.10
2023-11-09T20:16:02.935Z,17.20
2023-11-09T20:18:36.574Z,17.20
2023-11-09T20:21:13.248Z,17.18
2023-11-09T20:23:46.680Z,17.26
2023-11-09T20:26:22.916Z,17.33
2023-11-09T20:28:56.532Z,17.55
2023-11-09T20:31:30.044Z,17.91
2023-11-09T20:34:03.577Z,18.02
2023-11-09T20:36:37.141Z,18.07
2023-11-09T20:39:12.693Z,18.11
2023-11-09T20:41:46.821Z,18.14
2023-11-09T20:44:20.808Z,18.17
2023-11-09T20:46:54.240Z,18.19
2023-11-09T20:49:27.762Z,18.20
2023-11-09T20:52:01.452Z,18.22
2023-11-09T20:54:38.162Z,18.23
2023-11-09T20:57:13.334Z,18.24
2023-11-09T20:59:46.800Z,18.25
2023-11-09T21:02:20.266Z,18.25
2023-11-09T21:04:53.657Z,18.26
2023-11-09T21:07:27.099Z,18.27
2023-11-09T21:10:00.567Z,18.27
2023-11-09T21:12:34.409Z,18.29
2023-11-09T21:15:09.810Z,18.29
2023-11-09T21:17:44.643Z,18.30
2023-11-09T21:20:18.754Z,18.30
2023-11-09T21:22:52.287Z,18.31
2023-11-09T21:25:26.242Z,18.13
2023-11-09T21:28:02.136Z,17.66
2023-11-09T21:30:36.088Z,17.58
2023-11-09T21:33:09.775Z,17.51
2023-11-09T21:35:43.506Z,17.50
2023-11-09T21:38:17.055Z,17.48
2023-11-09T21:40:51.614Z,17.43
2023-11-09T21:43:25.119Z,17.39
2023-11-09T21:45:58.719Z,17.35
2023-11-09T21:48:32.375Z,17.35
2023-11-09T21:51:06.159Z,17.34
2023-11-09T21:53:39.773Z,17.34
2023-11-09T21:56:13.531Z,17.34
2023-11-09T21:58:47.002Z,17.30
2023-11-09T22:01:20.525Z,17.29
2023-11-09T22:03:54.082Z,17.24
2023-11-09T22:06:27.659Z,17.24
2023-11-09T22:09:01.824Z,17.25
2023-11-09T22:11:36.876Z,17.22
2023-11-09T22:14:10.588Z,17.30
2023-11-09T22:16:45.725Z,17.29
2023-11-09T22:19:20.132Z,17.23
2023-11-09T22:21:53.672Z,17.31
2023-11-09T22:24:29.890Z,17.26
2023-11-09T22:27:05.750Z,17.21
2023-11-09T22:29:39.818Z,17.21
2023-11-09T22:32:14.428Z,17.33
2023-11-09T22:34:47.956Z,17.30
2023-11-09T22:37:21.668Z,17.30
2023-11-09T22:39:55.328Z,17.29
2023-11-09T22:42:28.900Z,17.31
2023-11-09T22:45:02.822Z,17.33
2023-11-09T22:47:36.529Z,17.32
2023-11-09T22:50:12.989Z,17.34
2023-11-09T22:52:47.907Z,17.36
2023-11-09T22:55:21.512Z,17.33
2023-11-09T22:57:55.069Z,17.27
2023-11-09T23:00:37.012Z,17.29
2023-11-09T23:03:11.561Z,17.27
2023-11-09T23:05:45.571Z,17.25
2023-11-09T23:08:20.583Z,17.26
2023-11-09T23:10:54.467Z,17.25
2023-11-09T23:13:29.512Z,17.23
2023-11-09T23:16:03.264Z,17.26
2023-11-09T23:18:36.820Z,17.23
2023-11-09T23:21:10.839Z,17.24
2023-11-09T23:23:44.636Z,17.28
2023-11-09T23:26:18.467Z,17.24
2023-11-09T23:28:51.964Z,17.23
2023-11-09T23:31:26.169Z,17.23
2023-11-09T23:34:02.144Z,17.22
2023-11-09T23:36:36.023Z,17.26
2023-11-09T23:39:10.371Z,17.26
2023-11-09T23:41:43.902Z,17.25
2023-11-09T23:44:17.389Z,17.24
2023-11-09T23:46:50.901Z,17.24
2023-11-09T23:49:24.438Z,17.23
2023-11-09T23:51:57.898Z,17.23
2023-11-09T23:54:31.474Z,17.24
2023-11-09T23:57:05.294Z,17.23
2023-11-09T23:59:38.785Z,17.22
